Latest Weather Observations for Tindal

IDD60801

Issued at 8:35 am CST Saturday 19 April 2014 (issued every 30 minutes, with the page automatically refreshed every 10 minutes)

About weather observations | Map of weather stations | Latest weather observations for NT | Other Formats
Station Details ID: 014932 Name: TINDAL RAAF Lat: -14.52 Lon: 132.38 Height: 133.6 m
Data from the previous 72 hours. | See also: Recent months at Tindal
Date/Time
CST
Temp
°C
App
Temp
°C
Dew
Point
Rel
Hum
%
Delta-T
°C
Wind Press
QNH
hPa
Press
MSL
hPa
Rain
since 9 am
mm
Dir
 
Spd
km/h
Gust
km/h
Spd
kts
Gust
kts
19/08:30am 25.7 26.8 20.5 73 3.4 SE 15 19 8 10 1013.4 - 0.0
19/08:00am 24.2 26.4 20.5 80 2.4 SE 9 13 5 7 1013.5 - 0.0
19/07:30am 22.9 25.7 20.8 88 1.4 ESE 7 11 4 6 1013.4 - 0.0
19/07:00am 21.8 24.6 20.4 92 0.9 SSE 6 7 3 4 1013.1 - 0.0
19/06:30am 21.9 24.1 20.5 92 0.9 SE 9 11 5 6 1012.7 - 0.0
19/06:00am 22.2 24.2 20.7 91 1.0 SE 11 15 6 8 1012.3 1011.4 0.0
19/05:30am 22.3 24.3 20.8 91 1.0 SSE 11 13 6 7 1012.1 - 0.0
19/05:00am 22.5 24.1 20.8 90 1.1 SE 13 17 7 9 1012.0 - 0.0
19/04:30am 22.5 24.6 21.0 91 1.0 SSE 11 11 6 6 1011.7 - 0.0
19/04:00am 22.6 25.0 20.9 90 1.1 SE 9 11 5 6 1011.9 - 0.0
19/03:30am 22.8 24.9 20.9 89 1.2 SSE 11 11 6 6 1011.8 - 0.0
19/03:00am 22.9 25.7 20.8 88 1.4 SE 7 7 4 4 1011.8 1010.9 0.0
19/02:30am 23.1 25.9 20.8 87 1.5 SE 7 9 4 5 1011.9 - 0.0
19/02:00am 23.2 25.9 20.7 86 1.6 SE 7 9 4 5 1012.3 - 0.0
19/01:30am 23.4 26.0 20.5 84 1.9 SSE 7 9 4 5 1012.4 - 0.0
19/01:00am 23.9 26.6 20.6 82 2.2 SE 7 9 4 5 1012.8 - 0.0
19/12:30am 24.3 27.0 20.6 80 2.4 SE 7 9 4 5 1013.2 - 0.0
19/12:00am 24.9 27.2 20.6 77 2.8 E 9 13 5 7 1013.2 1012.4 0.0
 
Date/Time
CST
Temp
°C
App
Temp
°C
Dew
Point
Rel
Hum
%
Delta-T
°C
Wind Press
QNH
hPa
Press
MSL
hPa
Rain
since 9 am
mm
Dir
 
Spd
km/h
Gust
km/h
Spd
kts
Gust
kts
18/11:30pm 25.4 27.2 20.4 74 3.3 E 11 13 6 7 1013.4 - 0.0
18/11:00pm 25.9 27.2 20.2 71 3.7 E 13 17 7 9 1013.5 - 0.0
18/10:30pm 26.4 28.2 20.3 69 4.0 E 11 19 6 10 1013.5 - 0.0
18/10:00pm 26.3 27.4 20.4 70 3.9 ENE 15 20 8 11 1013.7 - 0.0
18/09:30pm 26.4 27.1 20.5 70 3.9 E 17 20 9 11 1014.2 - 0.0
18/09:00pm 26.5 27.5 20.3 68 4.1 E 15 20 8 11 1014.1 1013.3 0.0
18/08:30pm 26.6 26.7 20.4 69 4.1 E 20 32 11 17 1013.8 - 0.0
18/08:00pm 26.7 27.0 20.8 70 3.9 E 20 28 11 15 1013.5 - 0.0
18/07:30pm 26.9 27.0 20.3 67 4.3 E 20 28 11 15 1012.9 - 0.0
18/07:00pm 27.0 26.4 20.6 68 4.2 E 24 35 13 19 1012.6 - 0.0
18/06:30pm 27.0 25.9 21.1 70 3.9 ENE 28 37 15 20 1012.2 - 0.0
18/06:00pm 26.9 25.6 21.4 72 3.7 ENE 30 41 16 22 1012.1 1011.2 0.0
18/05:30pm 27.0 25.0 21.1 70 3.9 ENE 33 46 18 25 1011.8 - 0.0
18/05:06pm 27.9 24.7 20.2 63 5.1 ENE 37 57 20 31 1011.5 - 0.0
18/05:00pm 28.4 25.3 20.4 62 5.3 E 37 54 20 29 1011.4 - 0.0
18/04:51pm 30.0 25.4 20.0 55 6.6 E 44 54 24 29 1011.0 - 0.0
18/04:30pm 32.7 30.4 17.7 40 9.7 ESE 26 41 14 22 1010.3 - 0.0
18/04:00pm 33.2 33.0 19.7 45 9.0 ESE 20 28 11 15 1010.0 - 0.0
18/03:30pm 32.3 32.9 20.2 48 8.1 E 17 26 9 14 1010.1 - 0.0
18/03:00pm 34.6 34.8 20.2 43 9.7 SE 19 26 10 14 1010.2 1009.3 0.0
18/02:30pm 33.0 32.4 19.8 45 8.8 ESE 22 28 12 15 1010.6 - 0.0
18/02:00pm 33.5 32.5 19.6 44 9.2 ESE 24 35 13 19 1010.7 - 0.0
18/01:30pm 33.0 33.6 20.2 47 8.6 E 17 24 9 13 1011.1 - 0.0
18/01:00pm 33.3 32.9 20.1 45 8.8 ESE 22 33 12 18 1011.4 - 0.0
18/12:30pm 33.5 33.7 20.6 46 8.7 ESE 20 30 11 16 1012.0 - 0.0
18/12:00pm 32.1 31.0 19.4 47 8.4 ESE 24 37 13 20 1012.3 1011.4 0.0
18/11:30am 31.9 31.8 20.8 51 7.5 E 22 32 12 17 1012.7 - 0.0
18/11:00am 31.4 31.3 20.7 53 7.2 ESE 22 35 12 19 1013.1 - 0.0
18/10:30am 30.9 31.1 21.4 57 6.4 E 22 30 12 16 1013.3 - 0.0
18/10:00am 30.3 31.5 21.4 59 6.0 ESE 17 30 9 16 1013.5 - 0.0
18/09:30am 29.0 30.6 21.5 64 5.0 ESE 15 20 8 11 1013.4 - 0.0
18/09:00am 27.3 28.6 21.6 71 3.8 ESE 17 22 9 12 1013.3 1012.5 0.0
18/08:30am 26.4 28.1 21.6 75 3.2 ESE 15 20 8 11 1013.2 - 0.0
18/08:00am 25.2 27.6 21.5 80 2.5 SE 11 15 6 8 1013.1 - 0.0
18/07:30am 23.6 26.7 21.5 88 1.4 SE 7 9 4 5 1012.7 - 0.0
18/07:00am 23.3 26.1 21.6 90 1.1 SSE 9 11 5 6 1012.3 - 0.0
18/06:30am 23.7 26.1 21.6 88 1.4 SSE 11 13 6 7 1012.1 - 0.0
18/06:00am 23.9 26.8 21.8 88 1.4 SE 9 11 5 6 1011.9 1011.0 0.0
18/05:30am 23.6 26.1 21.7 89 1.3 SE 11 13 6 7 1011.9 - 0.0
18/05:00am 23.7 26.2 21.8 89 1.3 SE 11 15 6 8 1012.0 - 0.0
18/04:30am 23.7 26.2 21.8 89 1.3 SE 11 15 6 8 1011.8 - 0.0
18/04:00am 23.4 25.5 21.7 90 1.1 SSE 13 15 7 8 1011.6 - 0.0
18/03:30am 23.7 26.1 21.6 88 1.4 SE 11 11 6 6 1011.7 - 0.0
18/03:00am 24.5 27.0 21.8 85 1.8 ESE 11 13 6 7 1011.7 1010.8 0.0
18/02:30am 24.5 27.8 21.8 85 1.8 ESE 7 11 4 6 1011.9 - 0.0
18/02:00am 24.9 27.8 21.8 83 2.1 ESE 9 13 5 7 1012.0 - 0.0
18/01:30am 25.4 27.9 21.7 80 2.5 SE 11 15 6 8 1012.2 - 0.0
18/01:00am 25.8 27.4 21.5 77 2.9 ESE 15 20 8 11 1012.6 - 0.0
18/12:30am 26.2 28.0 21.2 74 3.3 ESE 13 17 7 9 1012.8 - 0.0
18/12:00am 26.5 28.0 21.3 73 3.5 E 15 24 8 13 1013.0 1012.2 0.0
 
Date/Time
CST
Temp
°C
App
Temp
°C
Dew
Point
Rel
Hum
%
Delta-T
°C
Wind Press
QNH
hPa
Press
MSL
hPa
Rain
since 9 am
mm
Dir
 
Spd
km/h
Gust
km/h
Spd
kts
Gust
kts
17/11:30pm 26.7 28.5 21.2 72 3.7 E 13 20 7 11 1013.2 - 0.0
17/11:00pm 27.1 28.2 21.2 70 3.9 E 17 24 9 13 1013.3 - 0.0
17/10:30pm 26.8 28.1 20.9 70 3.9 E 15 20 8 11 1013.7 - 0.0
17/10:00pm 26.8 28.3 20.6 69 4.1 E 13 19 7 10 1013.7 - 0.0
17/09:30pm 26.8 28.5 20.9 70 3.9 E 13 17 7 9 1013.4 - 0.0
17/09:00pm 26.7 28.0 20.8 70 3.9 E 15 20 8 11 1013.2 1012.4 0.0
17/08:30pm 26.8 26.8 20.9 70 3.9 E 22 30 12 16 1013.0 - 0.0
17/08:00pm 27.0 27.7 21.5 72 3.7 E 20 28 11 15 1012.6 - 0.0
17/07:30pm 27.5 27.7 21.3 69 4.1 E 22 35 12 19 1012.1 - 0.0
17/07:00pm 27.7 27.2 21.5 69 4.2 E 26 39 14 21 1011.6 - 0.0
17/06:30pm 28.6 26.9 21.4 65 4.8 E 32 43 17 23 1011.0 - 0.0
17/06:09pm 30.2 28.0 20.4 55 6.5 E 32 48 17 26 1010.4 - 0.0
17/06:08pm 30.2 28.0 20.4 55 6.5 E 32 48 17 26 1010.4 - 0.0
17/06:00pm 32.5 32.1 19.0 44 8.9 ESE 19 28 10 15 1010.2 1009.3 0.0
17/05:30pm 33.2 33.7 19.3 44 9.2 SE 15 20 8 11 1009.7 - 0.0
17/05:00pm 33.3 32.9 19.0 42 9.4 ESE 19 26 10 14 1009.4 - 0.0
17/04:30pm 32.7 32.6 19.6 46 8.7 SE 19 26 10 14 1009.4 - 0.0
17/04:00pm 34.2 35.2 19.4 41 9.8 E 13 20 7 11 1009.2 - 0.0
17/03:30pm 35.0 35.4 19.8 41 10.2 ENE 17 22 9 12 1009.3 - 0.0
17/03:00pm 34.4 34.5 19.2 40 10.1 SE 17 22 9 12 1009.6 1008.7 0.0
17/02:30pm 33.9 33.4 19.2 42 9.7 ESE 20 30 11 16 1010.1 - 0.0
17/02:00pm 32.9 32.4 19.0 43 9.1 ESE 20 30 11 16 1010.5 - 0.0
17/01:30pm 33.0 31.6 18.7 42 9.4 E 24 32 13 17 1011.0 - 0.0
17/01:00pm 32.7 31.4 18.1 42 9.5 ESE 22 35 12 19 1011.2 - 0.0
17/12:30pm 32.3 30.8 18.5 44 9.0 E 24 32 13 17 1011.6 - 0.0
17/12:00pm 33.8 32.2 18.3 39 10.1 ESE 24 33 13 18 1011.9 1011.0 0.0
17/11:30am 31.9 30.8 17.8 43 9.1 SE 20 28 11 15 1012.2 - 0.0
17/11:00am 32.6 31.1 16.8 38 10.1 SE 20 30 11 16 1012.6 - 0.0
17/10:30am 31.6 32.8 18.2 44 8.7 E 9 19 5 10 1012.8 - 0.0
17/10:00am 30.0 31.1 18.1 49 7.7 ESE 9 11 5 6 1012.8 - 0.0
17/09:30am 29.5 31.1 19.2 54 6.7 NNE 9 15 5 8 1012.7 - 0.0
17/09:00am 28.1 30.1 19.1 58 5.8 ESE 7 11 4 6 1012.7 1011.8 0.0
17/08:30am 25.2 25.9 17.9 64 4.6 S 11 15 6 8 1012.6 - 0.0
17/08:00am 22.9 24.1 17.4 71 3.4 SSE 7 9 4 5 1012.4 - 0.0
17/07:30am 21.6 22.7 17.2 76 2.7 SSE 7 9 4 5 1012.3 - 0.0
17/07:00am 20.9 22.0 16.7 77 2.6 SE 6 6 3 3 1012.0 - 0.0
17/06:30am 21.1 22.2 16.5 75 2.8 SE 6 7 3 4 1011.6 - 0.0
17/06:00am 21.3 22.5 16.0 72 3.2 ESE 4 7 2 4 1011.4 1010.5 0.0
17/05:30am 20.8 21.5 16.0 74 2.9 SE 7 9 4 5 1011.2 - 0.0
17/05:00am 21.2 21.9 16.0 72 3.1 ESE 7 9 4 5 1010.9 - 0.0
17/04:30am 21.3 21.5 15.8 71 3.3 SSE 9 11 5 6 1010.8 - 0.0
17/04:00am 21.6 22.2 15.9 70 3.4 SSE 7 9 4 5 1010.7 - 0.0
17/03:30am 22.1 22.8 15.5 66 4.0 ESE 6 7 3 4 1010.8 - 0.0
17/03:00am 22.4 21.7 15.5 65 4.2 SE 13 17 7 9 1010.8 1009.9 0.0
17/02:30am 21.7 21.2 15.8 69 3.6 SE 13 15 7 8 1010.9 - 0.0
17/02:00am 22.5 22.6 15.6 65 4.2 SE 9 11 5 6 1011.1 - 0.0
17/01:30am 22.8 22.6 15.6 64 4.3 SE 11 13 6 7 1011.3 - 0.0
17/01:00am 23.5 23.1 15.3 60 4.9 SE 11 13 6 7 1011.5 - 0.0
17/12:30am 24.3 23.6 15.5 58 5.3 SE 13 15 7 8 1011.7 - 0.0
17/12:00am 23.3 23.2 16.1 64 4.4 SE 11 13 6 7 1011.7 1010.8 0.0
 
Date/Time
CST
Temp
°C
App
Temp
°C
Dew
Point
Rel
Hum
%
Delta-T
°C
Wind Press
QNH
hPa
Press
MSL
hPa
Rain
since 9 am
mm
Dir
 
Spd
km/h
Gust
km/h
Spd
kts
Gust
kts
16/11:30pm 23.5 23.5 16.3 64 4.4 SE 11 13 6 7 1011.5 - 0.0
16/11:00pm 23.7 24.3 16.7 65 4.3 SE 9 11 5 6 1011.4 - 0.0
16/10:30pm 23.8 24.0 16.8 65 4.3 SE 11 13 6 7 1011.3 - 0.0
16/10:00pm 23.8 24.6 17.3 67 4.0 SE 9 11 5 6 1011.4 - 0.0
16/09:30pm 24.2 25.6 17.7 67 4.1 SE 7 9 4 5 1011.2 - 0.0
16/09:00pm 24.6 26.0 17.8 66 4.3 SE 7 9 4 5 1010.9 1010.0 0.0
16/08:30pm 25.2 26.6 17.9 64 4.6 SE 7 7 4 4 1010.5 - 0.0
16/08:00pm 25.9 27.5 17.8 61 5.1 SE 6 7 3 4 1010.1 - 0.0
16/07:30pm 27.1 28.2 17.0 54 6.3 SSE 7 9 4 5 1009.9 - 0.0
16/07:00pm 27.9 28.9 17.7 53 6.5 S 9 9 5 5 1009.5 - 0.0
16/06:30pm 30.6 31.3 16.2 41 9.0 SSE 7 9 4 5 1009.4 - 0.0
16/06:00pm 32.1 31.9 14.7 35 10.7 SE 9 13 5 7 1009.1 1008.2 0.0
16/05:30pm 34.0 31.9 13.5 29 12.5 ESE 17 22 9 12 1008.8 - 0.0
16/05:00pm 34.9 33.6 13.7 28 13.0 SE 13 17 7 9 1008.6 - 0.0
16/04:30pm 34.3 32.4 14.2 29 12.4 ESE 17 24 9 13 1008.6 - 0.0
16/04:00pm 35.1 34.4 14.4 29 12.8 ESE 11 20 6 11 1008.5 - 0.0
16/03:30pm 35.2 33.4 13.4 27 13.3 E 15 20 8 11 1008.5 - 0.0
16/03:00pm 35.6 34.5 14.3 28 13.2 SE 13 24 7 13 1008.8 1007.9 0.0
16/02:30pm 34.1 32.2 14.1 30 12.3 SSE 17 24 9 13 1009.0 - 0.0
16/02:00pm 34.9 34.0 13.7 28 13.0 ESE 11 15 6 8 1009.2 - 0.0
16/01:30pm 34.9 32.1 14.2 28 12.8 SSE 22 33 12 18 1009.7 - 0.0
16/01:00pm 34.9 33.9 14.7 29 12.6 SE 13 20 7 11 1010.3 - 0.0
16/12:30pm 34.3 33.5 15.2 31 12.0 SE 13 22 7 12 1010.9 - 0.0
16/12:00pm 33.7 31.6 14.7 32 11.8 SSE 19 26 10 14 1011.4 1010.5 0.0
16/11:30am 33.4 31.8 14.9 32 11.5 SE 17 24 9 13 1011.9 - 0.0
16/11:00am 32.0 29.3 14.6 34 10.7 ESE 22 30 12 16 1012.4 - 0.0
16/10:30am 31.6 29.2 14.3 35 10.6 ESE 20 26 11 14 1012.6 - 0.0
16/10:00am 30.5 28.0 14.2 37 9.9 SE 20 26 11 14 1012.8 - 0.0
16/09:30am 28.9 25.3 13.2 38 9.3 ESE 24 32 13 17 1012.9 - 0.0
16/09:00am 27.7 25.2 14.0 43 8.2 SE 20 28 11 15 1012.8 1011.9 0.0

Other Formats:

Comma delimited format used in spreadsheet applications
http://www.bom.gov.au/fwo/IDD60801/IDD60801.94131.axf

JavaScript Object Notation format (JSON) in row-major order
http://www.bom.gov.au/fwo/IDD60801/IDD60801.94131.json